createdAt,value
2019-05-02T00:00:05.432Z,7.8
2019-05-02T00:01:05.437Z,7.8
2019-05-02T00:02:05.512Z,7.8
2019-05-02T00:03:05.761Z,7.8
2019-05-02T00:04:05.608Z,7.8
2019-05-02T00:05:05.671Z,7.8
2019-05-02T00:06:07.305Z,7.8
2019-05-02T00:07:05.802Z,7.8
2019-05-02T00:08:05.823Z,7.9
2019-05-02T00:09:09.062Z,7.9
2019-05-02T00:10:05.926Z,7.9
2019-05-02T00:11:05.991Z,7.9
2019-05-02T00:12:06.071Z,8
2019-05-02T00:13:06.093Z,8
2019-05-02T00:14:06.159Z,8
2019-05-02T00:15:06.197Z,8
2019-05-02T00:16:08.995Z,8
2019-05-02T00:17:06.270Z,8.1
2019-05-02T00:18:06.292Z,8.1
2019-05-02T00:19:09.026Z,8.1
2019-05-02T00:20:06.334Z,8.1
2019-05-02T00:21:06.328Z,8.1
2019-05-02T00:22:06.391Z,8.2
2019-05-02T00:23:06.465Z,8.2
2019-05-02T00:24:06.467Z,8.2
2019-05-02T00:25:06.509Z,8.3
2019-05-02T00:26:06.566Z,8.3
2019-05-02T00:27:06.603Z,8.3
2019-05-02T00:28:07.669Z,8.3
2019-05-02T00:29:06.800Z,8.4
2019-05-02T00:30:06.786Z,8.4
2019-05-02T00:31:07.342Z,8.4
2019-05-02T00:32:06.825Z,8.3
2019-05-02T00:33:06.872Z,8.5
2019-05-02T00:34:06.916Z,8.5
2019-05-02T00:35:06.913Z,8.6
2019-05-02T00:36:06.974Z,8.6
2019-05-02T00:37:06.966Z,8.7
2019-05-02T00:38:06.975Z,8.7
2019-05-02T00:39:09.465Z,8.7
2019-05-02T00:40:07.053Z,8.7
2019-05-02T00:41:07.119Z,8.7
2019-05-02T00:42:12.609Z,8.8
2019-05-02T00:43:07.121Z,8.8
2019-05-02T00:44:10.919Z,8.8
2019-05-02T00:45:07.184Z,8.8
2019-05-02T00:46:07.215Z,8.8
2019-05-02T00:47:10.800Z,8.8
2019-05-02T00:48:07.322Z,8.8
2019-05-02T00:49:07.372Z,8.8
2019-05-02T00:50:11.142Z,8.9
2019-05-02T00:51:07.469Z,8.9
2019-05-02T00:52:07.476Z,8.9
2019-05-02T00:53:11.947Z,9
2019-05-02T00:54:07.566Z,9
2019-05-02T00:55:10.128Z,9
2019-05-02T00:56:08.998Z,9
2019-05-02T00:57:07.628Z,9
2019-05-02T00:58:07.689Z,9
2019-05-02T00:59:08.792Z,8.9
2019-05-02T01:00:07.722Z,9
2019-05-02T01:01:07.756Z,8.9
2019-05-02T01:02:07.759Z,9
2019-05-02T01:03:10.984Z,9
2019-05-02T01:04:07.806Z,9
2019-05-02T01:05:07.848Z,9.1
2019-05-02T01:06:13.567Z,9.1
2019-05-02T01:07:07.911Z,9.1
2019-05-02T01:08:07.911Z,9.1
2019-05-02T01:09:10.859Z,9.1
2019-05-02T01:10:07.949Z,9.1
2019-05-02T01:11:08.020Z,9.1
2019-05-02T01:12:10.191Z,9.1
2019-05-02T01:13:07.971Z,9.2
2019-05-02T01:14:08.017Z,9.2
2019-05-02T01:15:08.504Z,9.2
2019-05-02T01:16:08.060Z,9.2
2019-05-02T01:17:08.069Z,9.2
2019-05-02T01:18:08.108Z,9.3
2019-05-02T01:19:12.054Z,9.3
2019-05-02T01:20:08.113Z,9.3
2019-05-02T01:21:08.238Z,9.4
2019-05-02T01:22:15.324Z,9.4
2019-05-02T01:23:08.160Z,9.4
2019-05-02T01:24:08.211Z,9.4
2019-05-02T01:25:14.925Z,9.3
2019-05-02T01:26:08.206Z,9.4
2019-05-02T01:27:08.199Z,9.4
2019-05-02T01:28:12.446Z,9.4
2019-05-02T01:29:08.255Z,9.3
2019-05-02T01:30:08.257Z,9.3
2019-05-02T01:31:08.269Z,9.3
2019-05-02T01:32:08.258Z,9.4
2019-05-02T01:33:08.271Z,9.4
2019-05-02T01:34:08.250Z,9.4
2019-05-02T01:35:08.280Z,9.3
2019-05-02T01:36:08.317Z,9.3
2019-05-02T01:37:11.834Z,9.3
2019-05-02T01:38:08.281Z,9.3
2019-05-02T01:39:10.531Z,9.4
2019-05-02T01:40:08.337Z,9.4
2019-05-02T01:41:08.407Z,9.4
2019-05-02T01:42:08.468Z,9.4
2019-05-02T01:43:08.470Z,9.4
2019-05-02T01:44:08.495Z,9.4
2019-05-02T01:45:11.122Z,9.4
2019-05-02T01:46:08.537Z,9.4
2019-05-02T01:47:08.617Z,9.4
2019-05-02T01:48:09.678Z,9.4
2019-05-02T01:49:08.690Z,9.4
2019-05-02T01:50:08.793Z,9.4
2019-05-02T01:51:09.901Z,9.4
2019-05-02T01:52:08.843Z,9.3
2019-05-02T01:53:08.915Z,9.3
2019-05-02T01:54:09.911Z,9.4
2019-05-02T01:55:08.971Z,9.4
2019-05-02T01:56:08.997Z,9.4
2019-05-02T01:57:10.003Z,9.4
2019-05-02T01:58:09.012Z,9.4
2019-05-02T01:59:09.066Z,9.4
2019-05-02T02:00:11.083Z,9.4
2019-05-02T02:01:09.209Z,9.4
2019-05-02T02:02:09.256Z,9.3
2019-05-02T02:03:10.348Z,9.3
2019-05-02T02:04:09.332Z,9.2
2019-05-02T02:05:09.324Z,9.2
2019-05-02T02:06:10.055Z,9.2
2019-05-02T02:07:09.434Z,9.2
2019-05-02T02:08:09.456Z,9.2
2019-05-02T02:09:09.843Z,9.1
2019-05-02T02:10:09.530Z,9.1
2019-05-02T02:11:09.579Z,9.1
2019-05-02T02:12:11.254Z,9.2
2019-05-02T02:13:09.616Z,9.1
2019-05-02T02:14:12.757Z,9.1
2019-05-02T02:15:09.702Z,9.1
2019-05-02T02:16:09.765Z,9
2019-05-02T02:17:14.929Z,9
2019-05-02T02:18:09.834Z,8.9
2019-05-02T02:19:09.887Z,8.9
2019-05-02T02:20:14.008Z,8.9
2019-05-02T02:21:09.968Z,8.9
2019-05-02T02:22:10.013Z,8.9
2019-05-02T02:23:14.007Z,8.8
2019-05-02T02:24:10.113Z,8.9
2019-05-02T02:25:10.096Z,8.9
2019-05-02T02:26:11.872Z,8.8
2019-05-02T02:27:10.190Z,8.8
2019-05-02T02:28:10.222Z,8.8
2019-05-02T02:29:10.260Z,8.8
2019-05-02T02:30:10.342Z,8.8
2019-05-02T02:31:10.328Z,8.8
2019-05-02T02:32:10.416Z,8.7
2019-05-02T02:33:10.445Z,8.7
2019-05-02T02:34:10.492Z,8.7
2019-05-02T02:35:12.531Z,8.6
2019-05-02T02:36:10.555Z,8.6
2019-05-02T02:37:12.317Z,8.6
2019-05-02T02:38:10.620Z,8.6
2019-05-02T02:39:13.971Z,8.6
2019-05-02T02:40:10.689Z,8.6
2019-05-02T02:41:12.892Z,8.5
2019-05-02T02:42:10.864Z,8.6
2019-05-02T02:43:31.566Z,8.6
2019-05-02T02:44:10.917Z,8.6
2019-05-02T02:45:12.771Z,8.6
2019-05-02T02:46:10.821Z,8.5
2019-05-02T02:47:11.800Z,8.6
2019-05-02T02:48:10.898Z,8.5
2019-05-02T02:49:13.835Z,8.6
2019-05-02T02:50:10.906Z,8.5
2019-05-02T02:51:21.958Z,8.5
2019-05-02T02:52:10.967Z,8.6
2019-05-02T02:53:10.979Z,8.6
2019-05-02T02:54:11.033Z,8.6
2019-05-02T02:55:15.992Z,8.6
2019-05-02T02:56:11.053Z,8.6
2019-05-02T02:57:19.936Z,8.6
2019-05-02T02:58:11.095Z,8.7
2019-05-02T02:59:11.154Z,8.7
2019-05-02T03:00:11.482Z,8.6
2019-05-02T03:01:11.161Z,8.6
2019-05-02T03:02:12.073Z,8.6
2019-05-02T03:03:11.192Z,8.6
2019-05-02T03:04:12.139Z,8.6
2019-05-02T03:05:11.223Z,8.6
2019-05-02T03:06:11.276Z,8.6
2019-05-02T03:07:11.269Z,8.7
2019-05-02T03:08:11.290Z,8.7
2019-05-02T03:09:11.301Z,8.7
2019-05-02T03:10:11.330Z,8.7
2019-05-02T03:11:11.359Z,8.7
2019-05-02T03:12:11.345Z,8.5
2019-05-02T03:13:14.873Z,8.7
2019-05-02T03:14:11.373Z,8.6
2019-05-02T03:15:11.408Z,8.6
2019-05-02T03:16:11.424Z,8.6
2019-05-02T03:17:11.435Z,8.6
2019-05-02T03:18:11.441Z,8.5
2019-05-02T03:19:14.517Z,8.5
2019-05-02T03:20:11.447Z,8.5
2019-05-02T03:21:13.160Z,8.4
2019-05-02T03:22:11.474Z,8.4
2019-05-02T03:23:14.964Z,8.4
2019-05-02T03:24:11.479Z,8.3
2019-05-02T03:25:11.479Z,8.3
2019-05-02T03:26:14.732Z,8.3
2019-05-02T03:27:11.484Z,8.3
2019-05-02T03:28:17.233Z,8.3
2019-05-02T03:29:11.513Z,8.2
2019-05-02T03:30:28.709Z,8.2
2019-05-02T03:31:23.358Z,8.2
2019-05-02T03:32:15.321Z,8.2
2019-05-02T03:33:12.443Z,8.1
2019-05-02T03:34:11.669Z,8.1
2019-05-02T03:35:17.768Z,8.1
2019-05-02T03:36:25.578Z,8.1
2019-05-02T03:37:13.811Z,8
2019-05-02T03:38:11.866Z,8
2019-05-02T03:39:14.538Z,8
2019-05-02T03:40:11.982Z,7.9
2019-05-02T03:41:13.053Z,7.9
2019-05-02T03:42:12.007Z,7.9
2019-05-02T03:43:12.059Z,7.9
2019-05-02T03:44:24.484Z,7.9
2019-05-02T03:45:12.209Z,7.9
2019-05-02T03:46:13.391Z,7.9
2019-05-02T03:47:12.279Z,7.9
2019-05-02T03:48:18.062Z,7.9
2019-05-02T03:49:12.355Z,7.9
2019-05-02T03:50:12.469Z,7.9
2019-05-02T03:51:20.869Z,7.8
2019-05-02T03:52:12.517Z,7.7
2019-05-02T03:53:17.489Z,7.8
2019-05-02T03:54:12.642Z,7.7
2019-05-02T03:55:12.675Z,7.7
2019-05-02T03:56:13.988Z,7.7
2019-05-02T03:57:12.818Z,7.7
2019-05-02T03:58:13.966Z,7.7
2019-05-02T03:59:12.901Z,7.7
2019-05-02T04:00:20.673Z,7.7
2019-05-02T04:01:12.997Z,7.7
2019-05-02T04:02:13.866Z,7.7
2019-05-02T04:03:13.020Z,7.6
2019-05-02T04:04:14.011Z,7.6
2019-05-02T04:05:13.073Z,7.6
2019-05-02T04:06:13.639Z,7.6
2019-05-02T04:07:13.135Z,7.6
2019-05-02T04:08:19.394Z,7.6
2019-05-02T04:09:13.221Z,7.6
2019-05-02T04:10:19.621Z,7.6
2019-05-02T04:11:13.324Z,7.6
2019-05-02T04:12:18.505Z,7.7
2019-05-02T04:13:13.450Z,7.6
2019-05-02T04:14:15.867Z,7.6
2019-05-02T04:15:13.535Z,7.6
2019-05-02T04:16:15.220Z,7.6
2019-05-02T04:17:13.616Z,7.6
2019-05-02T04:18:15.154Z,7.7
2019-05-02T04:19:13.700Z,7.7
2019-05-02T04:20:13.782Z,7.8
2019-05-02T04:21:13.773Z,7.8
2019-05-02T04:22:13.809Z,7.9
2019-05-02T04:23:13.872Z,7.9
2019-05-02T04:24:15.964Z,8
2019-05-02T04:25:13.909Z,8
2019-05-02T04:26:14.432Z,8.1
2019-05-02T04:27:13.985Z,8.1
2019-05-02T04:28:14.388Z,8.2
2019-05-02T04:29:14.012Z,8.3
2019-05-02T04:30:14.439Z,8.4
2019-05-02T04:31:14.054Z,8.6
2019-05-02T04:32:14.597Z,8.7
2019-05-02T04:33:14.122Z,8.8
2019-05-02T04:34:17.390Z,8.9
2019-05-02T04:35:14.209Z,9
2019-05-02T04:36:17.580Z,9
2019-05-02T04:37:14.252Z,9.1
2019-05-02T04:38:19.928Z,9.2
2019-05-02T04:39:18.257Z,9.2
2019-05-02T04:40:14.386Z,9.2
2019-05-02T04:41:18.603Z,9.2
2019-05-02T04:42:19.347Z,9.2
2019-05-02T04:43:14.391Z,9.1
2019-05-02T04:44:14.391Z,9
2019-05-02T04:45:26.153Z,9
2019-05-02T04:46:18.752Z,9
2019-05-02T04:47:18.287Z,9
2019-05-02T04:48:14.440Z,9
2019-05-02T04:49:19.838Z,9.1
2019-05-02T04:50:24.058Z,9.1
2019-05-02T04:51:17.359Z,9.2
2019-05-02T04:52:16.989Z,9.2
2019-05-02T04:53:14.518Z,9.2
2019-05-02T04:54:21.265Z,9
2019-05-02T04:55:22.866Z,8.9
2019-05-02T04:56:14.597Z,8.9
2019-05-02T04:57:18.413Z,8.8
2019-05-02T04:58:23.845Z,8.7
2019-05-02T04:59:19.716Z,8.8
2019-05-02T05:00:14.668Z,8.9
2019-05-02T05:01:14.732Z,8.8
2019-05-02T05:02:20.794Z,9
2019-05-02T05:03:15.803Z,9
2019-05-02T05:04:14.839Z,9.1
2019-05-02T05:05:17.114Z,9.1
2019-05-02T05:06:14.796Z,9.1
2019-05-02T05:07:14.812Z,9.2
2019-05-02T05:08:17.363Z,9
2019-05-02T05:09:15.157Z,9
2019-05-02T05:10:14.855Z,8.9
2019-05-02T05:11:18.961Z,8.8
2019-05-02T05:12:14.883Z,8.8
2019-05-02T05:13:17.279Z,8.5
2019-05-02T05:14:14.919Z,8.6
2019-05-02T05:15:33.223Z,8.4
2019-05-02T05:16:15.759Z,8.6
2019-05-02T05:17:17.870Z,8.7
2019-05-02T05:18:14.941Z,8.9
2019-05-02T05:19:14.957Z,8.8
2019-05-02T05:20:15.825Z,8.7
2019-05-02T05:21:15.476Z,8.7
2019-05-02T05:22:15.046Z,8.6
2019-05-02T05:23:16.388Z,8.7
2019-05-02T05:24:14.988Z,8.6
2019-05-02T05:25:17.520Z,8.6
2019-05-02T05:26:15.010Z,8.7
2019-05-02T05:27:18.746Z,8.6
2019-05-02T05:28:15.011Z,8.7
2019-05-02T05:29:19.174Z,8.6
2019-05-02T05:30:18.605Z,8.6
2019-05-02T05:31:16.319Z,8.3
2019-05-02T05:32:15.187Z,8.3
2019-05-02T05:33:15.251Z,8.3
2019-05-02T05:34:16.931Z,8.5
2019-05-02T05:35:17.529Z,8.6
2019-05-02T05:36:15.416Z,8.6
2019-05-02T05:37:17.221Z,8.5
2019-05-02T05:38:15.528Z,8.2
2019-05-02T05:39:17.174Z,8.2
2019-05-02T05:40:17.571Z,8.3
2019-05-02T05:41:19.133Z,8.2
2019-05-02T05:42:17.798Z,8.1
2019-05-02T05:43:20.239Z,8.1
2019-05-02T05:44:17.879Z,8.3
2019-05-02T05:45:17.359Z,8.4
2019-05-02T05:46:17.790Z,8.3
2019-05-02T05:47:17.494Z,8.4
2019-05-02T05:48:18.222Z,8.2
2019-05-02T05:49:18.263Z,8.3
2019-05-02T05:50:17.624Z,8.2
2019-05-02T05:51:16.886Z,8.3
2019-05-02T05:52:17.898Z,8.3
2019-05-02T05:53:17.031Z,8.4
2019-05-02T05:54:17.807Z,8.3
2019-05-02T05:55:18.116Z,8.3
2019-05-02T05:56:17.984Z,8.3
2019-05-02T05:57:17.301Z,8.4
2019-05-02T05:58:18.692Z,8.4
2019-05-02T05:59:17.470Z,8.4
2019-05-02T06:00:22.579Z,8.7
2019-05-02T06:01:17.631Z,8.8
2019-05-02T06:02:18.322Z,8.4
2019-05-02T06:03:17.865Z,8.2
2019-05-02T06:04:19.228Z,8.2
2019-05-02T06:05:17.625Z,8.3
2019-05-02T06:06:22.305Z,8.5
2019-05-02T06:07:17.574Z,8.6
2019-05-02T06:08:18.319Z,8.3
2019-05-02T06:09:16.797Z,8.5
2019-05-02T06:10:16.766Z,8.6
2019-05-02T06:11:19.931Z,8.5
2019-05-02T06:12:16.829Z,8.7
2019-05-02T06:13:16.818Z,8.6
2019-05-02T06:14:19.870Z,8.5
2019-05-02T06:15:16.903Z,8.3
2019-05-02T06:16:16.906Z,8.5
2019-05-02T06:17:16.915Z,8.6
2019-05-02T06:18:16.923Z,8.8
2019-05-02T06:19:17.775Z,8.8
2019-05-02T06:20:16.978Z,8.5
2019-05-02T06:21:17.242Z,8.5
2019-05-02T06:22:24.107Z,8.3
2019-05-02T06:23:17.131Z,8.1
2019-05-02T06:24:17.193Z,7.8
2019-05-02T06:25:17.288Z,8
2019-05-02T06:26:17.288Z,8.1
2019-05-02T06:27:20.722Z,8.2
2019-05-02T06:28:17.298Z,8.3
2019-05-02T06:29:18.429Z,8.4
2019-05-02T06:30:17.374Z,8.4
2019-05-02T06:31:17.462Z,8.2
2019-05-02T06:32:19.119Z,8.1
2019-05-02T06:33:17.486Z,7.8
2019-05-02T06:34:17.512Z,8
2019-05-02T06:35:21.067Z,7.9
2019-05-02T06:36:17.528Z,7.9
2019-05-02T06:37:17.577Z,7.7
2019-05-02T06:38:21.509Z,8
2019-05-02T06:39:17.644Z,7.7
2019-05-02T06:40:17.657Z,7.8
2019-05-02T06:41:20.891Z,8.1
2019-05-02T06:42:17.721Z,8.2
2019-05-02T06:43:17.739Z,8.1
2019-05-02T06:44:18.336Z,8.4
2019-05-02T06:45:17.787Z,8.3
2019-05-02T06:46:21.576Z,7.6
2019-05-02T06:47:17.838Z,7.6
2019-05-02T06:48:19.073Z,7.9
2019-05-02T06:49:17.892Z,8
2019-05-02T06:50:17.907Z,8.3
2019-05-02T06:51:20.752Z,8
2019-05-02T06:52:17.970Z,7.9
2019-05-02T06:53:17.947Z,8.2
2019-05-02T06:54:22.545Z,8
2019-05-02T06:55:17.993Z,7.8
2019-05-02T06:56:18.024Z,7.8
2019-05-02T06:57:18.983Z,7.8
2019-05-02T06:58:18.044Z,7.6
2019-05-02T06:59:20.126Z,7.7
2019-05-02T07:00:18.069Z,7.5
2019-05-02T07:01:21.101Z,7.8
2019-05-02T07:02:18.102Z,7.5
2019-05-02T07:03:18.109Z,7.2
2019-05-02T07:04:22.751Z,7.7
2019-05-02T07:05:18.122Z,7.6
2019-05-02T07:06:18.253Z,8.7
2019-05-02T07:07:18.159Z,8.2
2019-05-02T07:08:18.166Z,8
2019-05-02T07:09:18.294Z,8.1
2019-05-02T07:10:19.934Z,7.9
2019-05-02T07:11:18.150Z,8.4
2019-05-02T07:12:18.144Z,8.5
2019-05-02T07:13:18.210Z,8.3
2019-05-02T07:14:18.505Z,7.7
2019-05-02T07:15:18.200Z,7.6
2019-05-02T07:16:36.755Z,8
2019-05-02T07:17:18.190Z,7.6
2019-05-02T07:18:18.208Z,7.7
2019-05-02T07:19:21.576Z,7.6
2019-05-02T07:20:18.308Z,7.7
2019-05-02T07:21:23.050Z,7.6
2019-05-02T07:22:18.405Z,7.1
2019-05-02T07:23:18.511Z,7.3
2019-05-02T07:24:18.443Z,7.7
2019-05-02T07:25:18.484Z,7.2
2019-05-02T07:26:20.931Z,8.2
2019-05-02T07:27:18.577Z,8
2019-05-02T07:28:18.665Z,8
2019-05-02T07:29:21.765Z,8.4
2019-05-02T07:30:18.722Z,7.5
2019-05-02T07:31:18.794Z,7.5
2019-05-02T07:32:19.142Z,7.4
2019-05-02T07:33:18.825Z,7.7
2019-05-02T07:34:18.924Z,7.6
2019-05-02T07:35:23.928Z,7
2019-05-02T07:36:19.025Z,7.5
2019-05-02T07:37:18.992Z,8.2
2019-05-02T07:38:20.102Z,7.8
2019-05-02T07:39:19.088Z,8.3
2019-05-02T07:40:19.170Z,8.4
2019-05-02T07:41:19.154Z,7.5
2019-05-02T07:42:19.217Z,8.3
2019-05-02T07:43:22.139Z,7.8
2019-05-02T07:44:19.426Z,7.9
2019-05-02T07:45:19.329Z,8.1
2019-05-02T07:46:20.908Z,7.7
2019-05-02T07:47:19.406Z,8.1
2019-05-02T07:48:19.473Z,7.9
2019-05-02T07:49:20.773Z,8
2019-05-02T07:50:19.500Z,7.6
2019-05-02T07:51:21.225Z,7.4
2019-05-02T07:52:19.588Z,7.9
2019-05-02T07:53:19.650Z,7.6
2019-05-02T07:54:24.657Z,7.6
2019-05-02T07:55:19.729Z,8.4
2019-05-02T07:56:20.930Z,7.9
2019-05-02T07:57:19.841Z,7.5
2019-05-02T07:58:19.856Z,8
2019-05-02T07:59:23.257Z,8.1
2019-05-02T08:00:19.852Z,8.3
2019-05-02T08:01:19.928Z,7.7
2019-05-02T08:02:20.154Z,7.6
2019-05-02T08:03:19.979Z,7
2019-05-02T08:04:20.022Z,7.3
2019-05-02T08:05:21.460Z,7.7
2019-05-02T08:06:20.119Z,7.6
2019-05-02T08:07:21.064Z,7.7
2019-05-02T08:08:20.210Z,7.5
2019-05-02T08:09:20.216Z,7.3
2019-05-02T08:10:21.831Z,7.2
2019-05-02T08:11:20.317Z,7.2
2019-05-02T08:12:20.353Z,7
2019-05-02T08:13:20.400Z,7
2019-05-02T08:14:20.403Z,7.7
2019-05-02T08:15:20.486Z,7.5
2019-05-02T08:16:22.297Z,7.5
2019-05-02T08:17:20.534Z,8.1
2019-05-02T08:18:20.548Z,7.8
2019-05-02T08:19:23.385Z,7.7
2019-05-02T08:20:21.268Z,8.7
2019-05-02T08:21:20.661Z,8.8
2019-05-02T08:22:20.685Z,8.6
2019-05-02T08:23:25.749Z,7.7
2019-05-02T08:24:20.724Z,7.7
2019-05-02T08:25:20.802Z,7.5
2019-05-02T08:26:21.548Z,7.7
2019-05-02T08:27:22.953Z,7.1
2019-05-02T08:28:20.875Z,7.3
2019-05-02T08:29:23.231Z,7.3
2019-05-02T08:30:20.899Z,7.2
2019-05-02T08:31:21.101Z,7.4
2019-05-02T08:32:20.994Z,7.1
2019-05-02T08:33:20.985Z,6.8
2019-05-02T08:34:20.984Z,7
2019-05-02T08:35:20.998Z,7
2019-05-02T08:36:20.992Z,6.8
2019-05-02T08:37:21.043Z,7.1
2019-05-02T08:38:21.050Z,7.3
2019-05-02T08:39:25.377Z,7.4
2019-05-02T08:40:21.095Z,7.2
2019-05-02T08:41:21.418Z,6.7
2019-05-02T08:42:21.117Z,7.2
2019-05-02T08:43:21.183Z,7.3
2019-05-02T08:44:21.183Z,7.3
2019-05-02T08:45:21.234Z,6.9
2019-05-02T08:46:21.232Z,7.6
2019-05-02T08:47:23.733Z,7.4
2019-05-02T08:48:22.740Z,7
2019-05-02T08:49:21.330Z,7.1
2019-05-02T08:50:21.290Z,7.5
2019-05-02T08:51:21.303Z,7.4
2019-05-02T08:52:22.343Z,7.2
2019-05-02T08:53:22.230Z,7.2
2019-05-02T08:54:21.369Z,7.1
2019-05-02T08:55:21.388Z,6.7
2019-05-02T08:56:21.679Z,7.5
2019-05-02T08:57:23.691Z,7.9
2019-05-02T08:58:21.416Z,7.2
2019-05-02T08:59:24.365Z,7.4
2019-05-02T09:00:21.451Z,8.2
2019-05-02T09:01:33.920Z,6.8
2019-05-02T09:02:25.827Z,7.1
2019-05-02T09:03:21.485Z,7.4
2019-05-02T09:04:24.061Z,7
2019-05-02T09:05:21.528Z,7.3
2019-05-02T09:06:22.294Z,7.2
2019-05-02T09:07:21.640Z,7.3
2019-05-02T09:08:21.527Z,7.4
2019-05-02T09:09:22.680Z,7.4
2019-05-02T09:10:21.575Z,7.5
2019-05-02T09:11:21.563Z,7.7
2019-05-02T09:12:22.909Z,7.4
2019-05-02T09:13:24.075Z,6.9
2019-05-02T09:14:21.682Z,7.9
2019-05-02T09:15:22.289Z,7.8
2019-05-02T09:16:28.449Z,7.9
2019-05-02T09:17:32.840Z,7.6
2019-05-02T09:18:22.332Z,7.3
2019-05-02T09:19:26.233Z,6.6
2019-05-02T09:20:23.614Z,7.1
2019-05-02T09:21:21.999Z,7.6
2019-05-02T09:22:22.136Z,7.2
2019-05-02T09:23:22.773Z,7.4
2019-05-02T09:24:23.842Z,7.6
2019-05-02T09:25:22.841Z,7.3
2019-05-02T09:26:33.025Z,7.4
2019-05-02T09:27:22.401Z,7.6
2019-05-02T09:28:25.301Z,7.9
2019-05-02T09:29:22.315Z,7.7
2019-05-02T09:30:25.774Z,7.3
2019-05-02T09:31:22.602Z,7.9
2019-05-02T09:32:26.192Z,8.1
2019-05-02T09:33:22.609Z,7.7
2019-05-02T09:34:26.486Z,8.2
2019-05-02T09:35:23.033Z,7.8
2019-05-02T09:36:22.636Z,7.9
2019-05-02T09:37:22.770Z,7.5
2019-05-02T09:38:22.351Z,7.1
2019-05-02T09:39:22.788Z,7
2019-05-02T09:40:22.467Z,7.3
2019-05-02T09:41:26.778Z,8
2019-05-02T09:42:22.554Z,8.2
2019-05-02T09:43:22.896Z,8.6
2019-05-02T09:44:22.644Z,8.2
2019-05-02T09:45:22.885Z,8
2019-05-02T09:46:22.822Z,7.9
2019-05-02T09:47:27.203Z,7.8
2019-05-02T09:48:26.733Z,8.2
2019-05-02T09:49:22.910Z,7.8
2019-05-02T09:50:29.333Z,7.4
2019-05-02T09:51:22.997Z,7.7
2019-05-02T09:52:23.136Z,7.4
2019-05-02T09:53:25.417Z,7.7
2019-05-02T09:54:23.348Z,8.1
2019-05-02T09:55:23.184Z,7.7
2019-05-02T09:56:23.179Z,7.7
2019-05-02T09:57:23.250Z,8.1
2019-05-02T09:58:23.948Z,7.6
2019-05-02T09:59:29.414Z,7.1
2019-05-02T10:00:32.055Z,7.5
2019-05-02T10:01:23.382Z,8.2
2019-05-02T10:02:25.226Z,7.8
2019-05-02T10:03:23.458Z,7.5
2019-05-02T10:04:23.492Z,7.5
2019-05-02T10:05:23.540Z,8.1
2019-05-02T10:06:23.545Z,7.8
2019-05-02T10:07:23.587Z,8.4
2019-05-02T10:08:23.627Z,8.6
2019-05-02T10:09:27.070Z,8.1
2019-05-02T10:10:23.699Z,7.8
2019-05-02T10:11:25.969Z,7.7
2019-05-02T10:12:23.781Z,8.3
2019-05-02T10:13:23.792Z,8
2019-05-02T10:14:23.917Z,8.3
2019-05-02T10:15:23.829Z,7.9
2019-05-02T10:16:27.258Z,7.3
2019-05-02T10:17:23.874Z,7.3
2019-05-02T10:18:25.349Z,7.6
2019-05-02T10:19:26.049Z,7.6
2019-05-02T10:20:31.704Z,7.6
2019-05-02T10:21:24.015Z,8.1
2019-05-02T10:22:26.546Z,7.7
2019-05-02T10:23:24.089Z,8.2
2019-05-02T10:24:24.070Z,7.9
2019-05-02T10:25:24.092Z,7.8
2019-05-02T10:26:24.747Z,7.4
2019-05-02T10:27:24.180Z,7.1
2019-05-02T10:28:24.213Z,6.9
2019-05-02T10:29:28.207Z,7.1
2019-05-02T10:30:24.254Z,7.6
2019-05-02T10:31:27.457Z,7.6
2019-05-02T10:32:24.285Z,7.6
2019-05-02T10:33:27.850Z,7.3
2019-05-02T10:34:24.344Z,7.1
2019-05-02T10:35:27.571Z,8.1
2019-05-02T10:36:24.418Z,7.7
2019-05-02T10:37:24.420Z,7
2019-05-02T10:38:24.444Z,7.2
2019-05-02T10:39:28.334Z,7.9
2019-05-02T10:40:24.496Z,7.2
2019-05-02T10:41:24.527Z,6.6
2019-05-02T10:42:24.541Z,7.1
2019-05-02T10:43:24.596Z,7.6
2019-05-02T10:44:27.094Z,7.6
2019-05-02T10:45:24.622Z,7.6
2019-05-02T10:46:27.707Z,7.3
2019-05-02T10:47:24.677Z,7
2019-05-02T10:48:28.141Z,7.2
2019-05-02T10:49:24.720Z,7.5
2019-05-02T10:50:24.735Z,7.2
2019-05-02T10:51:26.137Z,6.9
2019-05-02T10:52:29.410Z,7.5
2019-05-02T10:53:24.939Z,7.4
2019-05-02T10:54:27.835Z,7.4
2019-05-02T10:55:26.117Z,6.7
2019-05-02T10:56:24.845Z,7.3
2019-05-02T10:57:24.884Z,6.8
2019-05-02T10:58:31.148Z,6.7
2019-05-02T10:59:24.912Z,6.2
2019-05-02T11:00:24.925Z,6.9
2019-05-02T11:01:24.930Z,7.3
2019-05-02T11:02:24.985Z,6.5
2019-05-02T11:03:24.985Z,6.5
2019-05-02T11:04:29.058Z,6.7
2019-05-02T11:05:26.516Z,6.3
2019-05-02T11:06:25.001Z,6.5
2019-05-02T11:07:26.438Z,6.9
2019-05-02T11:08:25.044Z,6.5
2019-05-02T11:09:26.319Z,6.5
2019-05-02T11:10:25.050Z,6.5
2019-05-02T11:11:25.059Z,6.4
2019-05-02T11:12:27.455Z,6.8
2019-05-02T11:13:25.110Z,6.2
2019-05-02T11:14:25.092Z,5.9
2019-05-02T11:15:26.765Z,6.6
2019-05-02T11:16:25.107Z,6.6
2019-05-02T11:17:25.127Z,6.4
2019-05-02T11:18:39.344Z,7.2
2019-05-02T11:19:25.082Z,7.1
2019-05-02T11:20:25.086Z,7.1
2019-05-02T11:21:25.157Z,6.8
2019-05-02T11:22:25.142Z,7
2019-05-02T11:23:25.239Z,7.4
2019-05-02T11:24:25.227Z,7.6
2019-05-02T11:25:25.331Z,7.2
2019-05-02T11:26:25.518Z,7.2
2019-05-02T11:27:25.381Z,6.7
2019-05-02T11:28:25.407Z,7.3
2019-05-02T11:29:25.556Z,7.3
2019-05-02T11:30:26.672Z,7.2
2019-05-02T11:31:25.555Z,7.3
2019-05-02T11:32:25.580Z,7.3
2019-05-02T11:33:25.641Z,7.4
2019-05-02T11:34:25.700Z,7.3
2019-05-02T11:35:25.753Z,6.4
2019-05-02T11:36:27.442Z,7.3
2019-05-02T11:37:25.891Z,7.1
2019-05-02T11:38:48.937Z,7.3
2019-05-02T11:39:32.727Z,7.2
2019-05-02T11:40:26.010Z,6.7
2019-05-02T11:41:26.105Z,7.1
2019-05-02T11:42:27.285Z,6.5
2019-05-02T11:43:26.201Z,7
2019-05-02T11:44:26.239Z,7.1
2019-05-02T11:45:26.315Z,6.7
2019-05-02T11:46:26.350Z,6.9
2019-05-02T11:47:26.731Z,6.6
2019-05-02T11:48:26.421Z,6.3
2019-05-02T11:49:26.497Z,6.2
2019-05-02T11:50:26.783Z,7.5
2019-05-02T11:51:26.617Z,7.3
2019-05-02T11:52:27.318Z,6.4
2019-05-02T11:53:29.304Z,6.6
2019-05-02T11:54:27.770Z,6.5
2019-05-02T11:55:28.937Z,6.7
2019-05-02T11:56:26.730Z,6.4
2019-05-02T11:57:28.372Z,6.4
2019-05-02T11:58:26.832Z,6.7
2019-05-02T11:59:27.762Z,6.6
2019-05-02T12:00:26.907Z,7.7
2019-05-02T12:01:35.302Z,7.3
2019-05-02T12:02:26.968Z,7.1
2019-05-02T12:03:28.075Z,7.6
2019-05-02T12:04:37.418Z,7.5
2019-05-02T12:05:31.619Z,7.2
2019-05-02T12:06:27.100Z,6.8
2019-05-02T12:07:27.121Z,6.7
2019-05-02T12:08:27.172Z,6.9
2019-05-02T12:09:27.207Z,6.8
2019-05-02T12:10:27.890Z,7.2
2019-05-02T12:11:27.319Z,7.7
2019-05-02T12:12:32.326Z,7.7
2019-05-02T12:13:27.366Z,7.1
2019-05-02T12:14:32.093Z,7.5
2019-05-02T12:15:27.456Z,7.2
2019-05-02T12:16:27.489Z,6.7
2019-05-02T12:17:27.542Z,6.8
2019-05-02T12:18:27.553Z,7.2
2019-05-02T12:19:27.575Z,6.9
2019-05-02T12:20:28.533Z,7.5
2019-05-02T12:21:27.662Z,7
2019-05-02T12:22:27.709Z,6.7
2019-05-02T12:23:27.731Z,7.4
2019-05-02T12:24:27.751Z,7
2019-05-02T12:25:27.783Z,7.1
2019-05-02T12:26:27.833Z,6.8
2019-05-02T12:27:27.849Z,6.7
2019-05-02T12:28:27.875Z,6.6
2019-05-02T12:29:27.904Z,6.8
2019-05-02T12:30:28.886Z,6.7
2019-05-02T12:31:27.965Z,7
2019-05-02T12:32:27.976Z,6.6
2019-05-02T12:33:27.982Z,6.4
2019-05-02T12:34:27.982Z,7
2019-05-02T12:35:28.033Z,6.5
2019-05-02T12:36:28.017Z,6.3
2019-05-02T12:37:28.041Z,6.8
2019-05-02T12:38:28.092Z,6.7
2019-05-02T12:39:28.089Z,6.6
2019-05-02T12:40:28.210Z,6.7
2019-05-02T12:41:28.113Z,6.2
2019-05-02T12:42:28.395Z,6.5
2019-05-02T12:43:28.129Z,6.7
2019-05-02T12:44:28.160Z,6.4
2019-05-02T12:45:28.159Z,6.6
2019-05-02T12:46:28.515Z,7
2019-05-02T12:47:28.185Z,6.8
2019-05-02T12:48:28.199Z,6.8
2019-05-02T12:49:28.350Z,6.8
2019-05-02T12:50:28.225Z,6.9
2019-05-02T12:51:28.257Z,7.6
2019-05-02T12:52:28.248Z,7.1
2019-05-02T12:53:28.246Z,7.1
2019-05-02T12:54:28.247Z,7.2
2019-05-02T12:55:28.270Z,6.9
2019-05-02T12:56:28.272Z,6.1
2019-05-02T12:57:28.280Z,6.5
2019-05-02T12:58:28.263Z,7.2
2019-05-02T12:59:28.284Z,6.4
2019-05-02T13:00:28.294Z,6.2
2019-05-02T13:01:28.315Z,6.3
2019-05-02T13:02:28.311Z,6.8
2019-05-02T13:03:28.304Z,7
2019-05-02T13:04:28.356Z,7.1
2019-05-02T13:05:28.415Z,7.9
2019-05-02T13:06:28.512Z,7
2019-05-02T13:07:28.538Z,6.8
2019-05-02T13:08:28.584Z,6.7
2019-05-02T13:09:28.598Z,6.6
2019-05-02T13:10:28.651Z,6.8
2019-05-02T13:11:28.671Z,6.9
2019-05-02T13:12:28.735Z,6.7
2019-05-02T13:13:28.828Z,6.9
2019-05-02T13:14:28.870Z,7.6
2019-05-02T13:15:28.971Z,7.1
2019-05-02T13:16:28.918Z,6.9
2019-05-02T13:17:29.440Z,7.1
2019-05-02T13:18:34.420Z,7.7
2019-05-02T13:19:37.885Z,6.9
2019-05-02T13:20:29.335Z,7.8
2019-05-02T13:21:39.939Z,7.4
2019-05-02T13:22:29.216Z,7.1
2019-05-02T13:23:33.722Z,7.1
2019-05-02T13:24:29.674Z,6.6
2019-05-02T13:25:32.679Z,6.7
2019-05-02T13:26:29.365Z,6.4
2019-05-02T13:27:31.534Z,6.4
2019-05-02T13:28:29.374Z,6.9
2019-05-02T13:29:29.446Z,6.9
2019-05-02T13:30:32.219Z,6.7
2019-05-02T13:31:29.538Z,6.1
2019-05-02T13:32:31.845Z,7.1
2019-05-02T13:33:32.366Z,6.6
2019-05-02T13:34:31.793Z,7.4
2019-05-02T13:35:31.694Z,7
2019-05-02T13:36:29.716Z,6.5
2019-05-02T13:37:31.579Z,6.6
2019-05-02T13:38:29.766Z,6.5
2019-05-02T13:39:29.810Z,6.7
2019-05-02T13:40:31.955Z,6.5
2019-05-02T13:41:31.964Z,6.3
2019-05-02T13:42:30.111Z,6.1
2019-05-02T13:43:31.921Z,6.1
2019-05-02T13:44:29.964Z,6.3
2019-05-02T13:45:30.110Z,5.8
2019-05-02T13:46:32.093Z,6.4
2019-05-02T13:47:30.090Z,5.9
2019-05-02T13:48:32.069Z,5.8
2019-05-02T13:49:30.138Z,5.5
2019-05-02T13:50:31.655Z,5.3